KRCR/RCR METAR and TAF weather

Enter ICAO airport designator
Station Type Date Time Source
KRCR METAR 2024/06/15 22:55 UTC NOAA

KRCR 152255Z AUTO 14003KT 10SM CLR 28/12 A3008 RMK AO2


Station Type Date Time Source
KRCR Decoded METAR 2024/06/15 22:55 UTC NOAA

Station name not available
Jun 15, 2024 - 06:55 PM EDT / 2024.06.15 2255 UTC
Wind: from the SE (140 degrees) at 3 MPH (3 KT):0
Visibility: 10 mile(s):0
Sky conditions: clear
Temperature: 82 F (28 C)
Dew Point: 53 F (12 C)
Relative Humidity: 37%
Pressure (altimeter): 30.08 in. Hg (1018 hPa)
ob: KRCR 152255Z AUTO 14003KT 10SM CLR 28/12 A3008 RMK AO2
cycle: 23

Station Type Date Time Source
KRCR TAF UTC NOAA

Error!

Example: see airport list